首页
METAR-TAF:

METAR-TAF

机场 :

蓬塔阿雷纳斯, 智利

纬度: 53-00S, 经度: 070-51W, 海拔: 37米

当前天气观测

该预报发布于59分钟前的09:00 UTC
风速4节,风向多变
温度 5°C
湿度 81%
气压 1009 hPa
能见度10公里或以上
少量云层高于4300英尺
多云层高于12000英尺

METAR: SCCI 220900Z VRB04KT 9999 FEW043 BKN120 05/02 Q1009 NOSIG

时间: 05:59 (09:59 UTC)

预报

该预报发布于5小时和58分钟前的04:01 UTC
预报有效从22日的 06点(UTC)到 23日的 06点(UTC)
风速12节,风向西转西北
能见度10公里或以上
少量云层高于3000英尺
成为
从 22日的 15点(UTC)到 22日的 17点(UTC)
风速15节,风向西,有时为25节阵风
成为
从 22日的 22点(UTC)到 23日的 00点(UTC)
风速9节,风向西转西北
多云层高于3000英尺
成为
从 23日的 04点(UTC)到 23日的 06点(UTC)
少量云层高于4000英尺

TAF: SCCI 220401Z 2206/2306 30012KT 9999 FEW030 TN04/2209Z TX09/2218Z BECMG 2215/2217 27015G25KT BECMG 2222/2300 30009KT BKN030 BECMG 2304/2306 FEW040

超过4000个机场的气象观测和天气预报(METAR&TAF报告)。

可查询的气象台以黄色和红色小点在地图上表示。

将鼠标移到小点上方,可查看气象台名称。

然后点击查看天气观测和预报。

如需切换地图:点击带黑十字的绿色按钮放大地图;点击带横线的绿色按钮缩小地图;或者点击绿色箭头查看邻近地区的地图。


METAR-TAF: